sensor_id;sensor_type;location;lat;lon;timestamp;P1;durP1;ratioP1;P2;durP2;ratioP2
74371;SDS011;62885;51.374;6.170;2022-12-18T00:00:39;17.98;;;7.30;;
74371;SDS011;62885;51.374;6.170;2022-12-18T00:03:08;17.38;;;7.07;;
74371;SDS011;62885;51.374;6.170;2022-12-18T00:05:34;18.80;;;9.55;;
74371;SDS011;62885;51.374;6.170;2022-12-18T00:08:00;15.18;;;9.10;;
74371;SDS011;62885;51.374;6.170;2022-12-18T00:10:26;14.50;;;7.50;;
74371;SDS011;62885;51.374;6.170;2022-12-18T00:12:52;16.45;;;8.57;;
74371;SDS011;62885;51.374;6.170;2022-12-18T00:15:18;13.07;;;8.07;;
74371;SDS011;62885;51.374;6.170;2022-12-18T00:17:43;15.73;;;7.20;;
74371;SDS011;62885;51.374;6.170;2022-12-18T00:20:08;12.27;;;7.18;;
74371;SDS011;62885;51.374;6.170;2022-12-18T00:22:34;15.40;;;8.23;;
74371;SDS011;62885;51.374;6.170;2022-12-18T00:24:59;18.55;;;7.28;;
74371;SDS011;62885;51.374;6.170;2022-12-18T00:27:28;16.35;;;8.10;;
74371;SDS011;62885;51.374;6.170;2022-12-18T00:29:53;16.42;;;8.07;;
74371;SDS011;62885;51.374;6.170;2022-12-18T00:32:18;13.90;;;7.38;;
74371;SDS011;62885;51.374;6.170;2022-12-18T00:34:44;15.25;;;6.50;;
74371;SDS011;62885;51.374;6.170;2022-12-18T00:37:09;15.75;;;6.93;;
74371;SDS011;62885;51.374;6.170;2022-12-18T00:39:34;13.55;;;7.22;;
74371;SDS011;62885;51.374;6.170;2022-12-18T00:42:00;13.73;;;7.85;;
74371;SDS011;62885;51.374;6.170;2022-12-18T00:44:44;14.13;;;6.68;;
74371;SDS011;62885;51.374;6.170;2022-12-18T00:47:12;11.95;;;7.00;;
74371;SDS011;62885;51.374;6.170;2022-12-18T00:49:37;14.38;;;5.80;;
74371;SDS011;62885;51.374;6.170;2022-12-18T00:52:03;14.75;;;7.55;;
74371;SDS011;62885;51.374;6.170;2022-12-18T00:54:28;14.02;;;7.70;;
74371;SDS011;62885;51.374;6.170;2022-12-18T00:56:53;13.70;;;6.53;;
74371;SDS011;62885;51.374;6.170;2022-12-18T00:59:20;13.25;;;5.90;;
74371;SDS011;62885;51.374;6.170;2022-12-18T01:01:45;15.15;;;7.90;;
74371;SDS011;62885;51.374;6.170;2022-12-18T01:04:11;12.43;;;7.03;;
74371;SDS011;62885;51.374;6.170;2022-12-18T01:06:37;12.35;;;6.65;;
74371;SDS011;62885;51.374;6.170;2022-12-18T01:09:02;13.65;;;6.93;;
74371;SDS011;62885;51.374;6.170;2022-12-18T01:11:28;12.52;;;6.90;;
74371;SDS011;62885;51.374;6.170;2022-12-18T01:13:53;12.52;;;7.05;;
74371;SDS011;62885;51.374;6.170;2022-12-18T01:16:20;13.40;;;7.25;;
74371;SDS011;62885;51.374;6.170;2022-12-18T01:18:45;11.18;;;5.95;;
74371;SDS011;62885;51.374;6.170;2022-12-18T01:21:15;11.90;;;5.68;;
74371;SDS011;62885;51.374;6.170;2022-12-18T01:23:44;13.57;;;7.45;;
74371;SDS011;62885;51.374;6.170;2022-12-18T01:26:12;10.70;;;7.05;;
74371;SDS011;62885;51.374;6.170;2022-12-18T01:28:39;10.63;;;5.90;;
74371;SDS011;62885;51.374;6.170;2022-12-18T01:33:44;12.00;;;6.78;;
74371;SDS011;62885;51.374;6.170;2022-12-18T01:36:14;11.07;;;6.57;;
74371;SDS011;62885;51.374;6.170;2022-12-18T01:38:41;13.50;;;5.75;;
74371;SDS011;62885;51.374;6.170;2022-12-18T01:41:07;15.40;;;5.70;;
74371;SDS011;62885;51.374;6.170;2022-12-18T01:46:25;13.10;;;6.47;;
74371;SDS011;62885;51.374;6.170;2022-12-18T01:48:56;12.77;;;6.82;;
74371;SDS011;62885;51.374;6.170;2022-12-18T01:51:24;12.60;;;6.63;;
74371;SDS011;62885;51.374;6.170;2022-12-18T01:53:51;15.50;;;6.90;;
74371;SDS011;62885;51.374;6.170;2022-12-18T01:56:18;9.25;;;5.10;;
74371;SDS011;62885;51.374;6.170;2022-12-18T01:58:55;13.57;;;5.63;;
74371;SDS011;62885;51.374;6.170;2022-12-18T02:01:26;11.18;;;5.55;;
74371;SDS011;62885;51.374;6.170;2022-12-18T02:03:52;9.60;;;5.75;;
74371;SDS011;62885;51.374;6.170;2022-12-18T02:06:31;12.60;;;6.07;;
74371;SDS011;62885;51.374;6.170;2022-12-18T02:09:04;13.23;;;6.13;;
74371;SDS011;62885;51.374;6.170;2022-12-18T02:17:22;9.15;;;5.28;;
74371;SDS011;62885;51.374;6.170;2022-12-18T02:30:14;7.72;;;5.00;;
74371;SDS011;62885;51.374;6.170;2022-12-18T02:32:41;14.70;;;5.72;;
74371;SDS011;62885;51.374;6.170;2022-12-18T02:35:13;10.05;;;4.28;;
74371;SDS011;62885;51.374;6.170;2022-12-18T02:37:42;7.78;;;5.30;;
74371;SDS011;62885;51.374;6.170;2022-12-18T02:40:10;11.18;;;3.72;;
74371;SDS011;62885;51.374;6.170;2022-12-18T02:42:38;10.05;;;5.90;;
74371;SDS011;62885;51.374;6.170;2022-12-18T02:45:03;10.45;;;5.18;;
74371;SDS011;62885;51.374;6.170;2022-12-18T02:47:31;10.27;;;5.60;;
74371;SDS011;62885;51.374;6.170;2022-12-18T03:03:52;12.20;;;4.32;;
74371;SDS011;62885;51.374;6.170;2022-12-18T03:08:52;10.35;;;4.30;;
74371;SDS011;62885;51.374;6.170;2022-12-18T03:11:24;10.32;;;4.85;;
74371;SDS011;62885;51.374;6.170;2022-12-18T03:14:11;10.25;;;4.40;;
74371;SDS011;62885;51.374;6.170;2022-12-18T03:16:41;8.95;;;4.78;;
74371;SDS011;62885;51.374;6.170;2022-12-18T03:19:08;7.30;;;4.55;;
74371;SDS011;62885;51.374;6.170;2022-12-18T03:21:41;9.07;;;4.82;;
74371;SDS011;62885;51.374;6.170;2022-12-18T03:24:10;9.90;;;5.25;;
74371;SDS011;62885;51.374;6.170;2022-12-18T03:29:34;10.00;;;4.82;;
74371;SDS011;62885;51.374;6.170;2022-12-18T03:32:05;12.30;;;5.30;;
74371;SDS011;62885;51.374;6.170;2022-12-18T03:34:36;9.30;;;4.97;;
74371;SDS011;62885;51.374;6.170;2022-12-18T03:37:05;10.57;;;6.90;;
74371;SDS011;62885;51.374;6.170;2022-12-18T03:39:31;13.02;;;5.85;;
74371;SDS011;62885;51.374;6.170;2022-12-18T03:42:13;14.65;;;4.63;;
74371;SDS011;62885;51.374;6.170;2022-12-18T03:55:59;9.30;;;3.92;;
74371;SDS011;62885;51.374;6.170;2022-12-18T03:58:27;12.05;;;5.07;;
74371;SDS011;62885;51.374;6.170;2022-12-18T04:00:55;9.40;;;4.85;;
74371;SDS011;62885;51.374;6.170;2022-12-18T04:03:25;7.95;;;4.50;;
74371;SDS011;62885;51.374;6.170;2022-12-18T04:05:52;14.57;;;7.05;;
74371;SDS011;62885;51.374;6.170;2022-12-18T04:08:20;13.27;;;5.93;;
74371;SDS011;62885;51.374;6.170;2022-12-18T04:10:47;11.32;;;5.35;;
74371;SDS011;62885;51.374;6.170;2022-12-18T04:13:13;10.38;;;5.50;;
74371;SDS011;62885;51.374;6.170;2022-12-18T04:15:47;15.77;;;6.00;;
74371;SDS011;62885;51.374;6.170;2022-12-18T04:18:12;11.35;;;5.22;;
74371;SDS011;62885;51.374;6.170;2022-12-18T04:20:38;11.15;;;5.68;;
74371;SDS011;62885;51.374;6.170;2022-12-18T04:23:03;10.35;;;5.57;;
74371;SDS011;62885;51.374;6.170;2022-12-18T04:25:28;12.45;;;5.63;;
74371;SDS011;62885;51.374;6.170;2022-12-18T04:27:54;12.82;;;6.82;;
74371;SDS011;62885;51.374;6.170;2022-12-18T04:30:19;13.75;;;6.78;;
74371;SDS011;62885;51.374;6.170;2022-12-18T04:32:44;10.50;;;4.85;;
74371;SDS011;62885;51.374;6.170;2022-12-18T04:35:10;12.05;;;5.88;;
74371;SDS011;62885;51.374;6.170;2022-12-18T04:37:36;10.32;;;5.47;;
74371;SDS011;62885;51.374;6.170;2022-12-18T04:40:02;9.85;;;4.63;;
74371;SDS011;62885;51.374;6.170;2022-12-18T04:42:28;9.40;;;4.57;;
74371;SDS011;62885;51.374;6.170;2022-12-18T04:44:53;11.25;;;5.97;;
74371;SDS011;62885;51.374;6.170;2022-12-18T04:47:18;10.25;;;4.78;;
74371;SDS011;62885;51.374;6.170;2022-12-18T04:49:44;9.98;;;4.53;;
74371;SDS011;62885;51.374;6.170;2022-12-18T04:52:09;7.72;;;4.43;;
74371;SDS011;62885;51.374;6.170;2022-12-18T04:54:34;12.73;;;5.70;;
74371;SDS011;62885;51.374;6.170;2022-12-18T04:57:00;8.55;;;5.38;;
74371;SDS011;62885;51.374;6.170;2022-12-18T04:59:25;14.20;;;5.88;;
74371;SDS011;62885;51.374;6.170;2022-12-18T05:01:50;9.43;;;5.05;;
74371;SDS011;62885;51.374;6.170;2022-12-18T05:04:16;9.40;;;5.10;;
74371;SDS011;62885;51.374;6.170;2022-12-18T05:06:41;9.68;;;5.53;;
74371;SDS011;62885;51.374;6.170;2022-12-18T05:09:06;6.75;;;3.75;;
74371;SDS011;62885;51.374;6.170;2022-12-18T05:11:32;20.52;;;6.45;;
74371;SDS011;62885;51.374;6.170;2022-12-18T05:13:57;11.77;;;4.82;;
74371;SDS011;62885;51.374;6.170;2022-12-18T05:16:22;11.45;;;5.68;;
74371;SDS011;62885;51.374;6.170;2022-12-18T05:18:48;13.18;;;6.75;;
74371;SDS011;62885;51.374;6.170;2022-12-18T05:21:13;11.32;;;5.15;;
74371;SDS011;62885;51.374;6.170;2022-12-18T05:23:39;8.65;;;3.63;;
74371;SDS011;62885;51.374;6.170;2022-12-18T05:26:05;11.15;;;4.97;;
74371;SDS011;62885;51.374;6.170;2022-12-18T05:28:31;9.73;;;3.97;;
74371;SDS011;62885;51.374;6.170;2022-12-18T05:30:59;9.40;;;5.50;;
74371;SDS011;62885;51.374;6.170;2022-12-18T05:33:26;7.05;;;3.70;;
74371;SDS011;62885;51.374;6.170;2022-12-18T05:35:55;9.52;;;6.35;;
74371;SDS011;62885;51.374;6.170;2022-12-18T05:38:22;11.38;;;4.53;;
74371;SDS011;62885;51.374;6.170;2022-12-18T05:40:49;8.52;;;4.68;;
74371;SDS011;62885;51.374;6.170;2022-12-18T05:43:15;10.85;;;4.85;;
74371;SDS011;62885;51.374;6.170;2022-12-18T05:45:41;10.77;;;3.78;;
74371;SDS011;62885;51.374;6.170;2022-12-18T05:48:07;4.88;;;3.28;;
74371;SDS011;62885;51.374;6.170;2022-12-18T05:50:37;7.13;;;4.72;;
74371;SDS011;62885;51.374;6.170;2022-12-18T05:53:04;8.82;;;5.03;;
74371;SDS011;62885;51.374;6.170;2022-12-18T05:55:36;12.77;;;3.72;;
74371;SDS011;62885;51.374;6.170;2022-12-18T05:58:03;7.15;;;3.75;;
74371;SDS011;62885;51.374;6.170;2022-12-18T06:00:30;9.45;;;5.15;;
74371;SDS011;62885;51.374;6.170;2022-12-18T06:02:57;17.00;;;5.63;;
74371;SDS011;62885;51.374;6.170;2022-12-18T06:05:22;7.60;;;3.13;;
74371;SDS011;62885;51.374;6.170;2022-12-18T06:07:47;9.25;;;3.80;;
74371;SDS011;62885;51.374;6.170;2022-12-18T06:10:13;6.13;;;2.60;;
74371;SDS011;62885;51.374;6.170;2022-12-18T06:12:38;12.13;;;5.70;;
74371;SDS011;62885;51.374;6.170;2022-12-18T06:15:04;5.68;;;2.85;;
74371;SDS011;62885;51.374;6.170;2022-12-18T06:17:30;8.75;;;3.75;;
74371;SDS011;62885;51.374;6.170;2022-12-18T06:19:56;4.65;;;2.83;;
74371;SDS011;62885;51.374;6.170;2022-12-18T06:22:22;7.13;;;5.22;;
74371;SDS011;62885;51.374;6.170;2022-12-18T06:24:47;7.75;;;4.05;;
74371;SDS011;62885;51.374;6.170;2022-12-18T06:27:13;12.57;;;5.82;;
74371;SDS011;62885;51.374;6.170;2022-12-18T06:29:39;10.75;;;5.28;;
74371;SDS011;62885;51.374;6.170;2022-12-18T06:32:04;8.38;;;4.95;;
74371;SDS011;62885;51.374;6.170;2022-12-18T06:34:30;6.60;;;3.85;;
74371;SDS011;62885;51.374;6.170;2022-12-18T06:36:55;7.85;;;4.53;;
74371;SDS011;62885;51.374;6.170;2022-12-18T06:39:20;4.22;;;2.80;;
74371;SDS011;62885;51.374;6.170;2022-12-18T06:41:46;7.30;;;4.40;;
74371;SDS011;62885;51.374;6.170;2022-12-18T06:44:11;7.57;;;4.28;;
74371;SDS011;62885;51.374;6.170;2022-12-18T06:46:36;11.68;;;5.18;;
74371;SDS011;62885;51.374;6.170;2022-12-18T06:49:02;5.50;;;2.85;;
74371;SDS011;62885;51.374;6.170;2022-12-18T06:51:28;11.40;;;4.38;;
74371;SDS011;62885;51.374;6.170;2022-12-18T06:53:54;8.57;;;4.55;;
74371;SDS011;62885;51.374;6.170;2022-12-18T06:56:19;7.47;;;4.43;;
74371;SDS011;62885;51.374;6.170;2022-12-18T06:58:44;8.43;;;3.55;;
74371;SDS011;62885;51.374;6.170;2022-12-18T07:01:11;11.73;;;5.75;;
74371;SDS011;62885;51.374;6.170;2022-12-18T07:03:38;13.27;;;5.32;;
74371;SDS011;62885;51.374;6.170;2022-12-18T07:06:04;10.10;;;4.50;;
74371;SDS011;62885;51.374;6.170;2022-12-18T07:08:30;10.77;;;6.80;;
74371;SDS011;62885;51.374;6.170;2022-12-18T07:10:56;5.97;;;3.53;;
74371;SDS011;62885;51.374;6.170;2022-12-18T07:13:22;11.13;;;5.47;;
74371;SDS011;62885;51.374;6.170;2022-12-18T07:15:48;6.55;;;5.15;;
74371;SDS011;62885;51.374;6.170;2022-12-18T07:18:13;11.60;;;4.03;;
74371;SDS011;62885;51.374;6.170;2022-12-18T07:20:38;9.88;;;5.00;;
74371;SDS011;62885;51.374;6.170;2022-12-18T07:23:04;6.68;;;3.97;;
74371;SDS011;62885;51.374;6.170;2022-12-18T07:25:34;11.38;;;5.63;;
74371;SDS011;62885;51.374;6.170;2022-12-18T07:27:59;10.45;;;4.57;;
74371;SDS011;62885;51.374;6.170;2022-12-18T07:30:25;10.88;;;5.00;;
74371;SDS011;62885;51.374;6.170;2022-12-18T07:32:50;9.93;;;3.90;;
74371;SDS011;62885;51.374;6.170;2022-12-18T07:35:15;14.30;;;7.18;;
74371;SDS011;62885;51.374;6.170;2022-12-18T07:37:41;10.85;;;5.80;;
74371;SDS011;62885;51.374;6.170;2022-12-18T07:40:07;11.45;;;5.28;;
74371;SDS011;62885;51.374;6.170;2022-12-18T07:42:33;8.00;;;4.90;;
74371;SDS011;62885;51.374;6.170;2022-12-18T07:44:59;12.95;;;5.72;;
74371;SDS011;62885;51.374;6.170;2022-12-18T07:47:26;12.25;;;5.00;;
74371;SDS011;62885;51.374;6.170;2022-12-18T07:49:52;9.52;;;4.50;;
74371;SDS011;62885;51.374;6.170;2022-12-18T07:52:18;11.23;;;6.15;;
74371;SDS011;62885;51.374;6.170;2022-12-18T07:54:43;10.48;;;4.90;;
74371;SDS011;62885;51.374;6.170;2022-12-18T07:57:09;9.35;;;4.90;;
74371;SDS011;62885;51.374;6.170;2022-12-18T07:59:34;6.82;;;3.70;;
74371;SDS011;62885;51.374;6.170;2022-12-18T08:02:00;8.50;;;4.20;;
74371;SDS011;62885;51.374;6.170;2022-12-18T08:04:26;9.95;;;5.65;;
74371;SDS011;62885;51.374;6.170;2022-12-18T08:06:51;13.30;;;6.40;;
74371;SDS011;62885;51.374;6.170;2022-12-18T08:09:17;9.93;;;5.65;;
74371;SDS011;62885;51.374;6.170;2022-12-18T08:11:42;9.52;;;5.70;;
74371;SDS011;62885;51.374;6.170;2022-12-18T08:14:08;9.50;;;5.90;;
74371;SDS011;62885;51.374;6.170;2022-12-18T08:16:36;10.35;;;5.35;;
74371;SDS011;62885;51.374;6.170;2022-12-18T08:19:02;13.30;;;6.38;;
74371;SDS011;62885;51.374;6.170;2022-12-18T08:21:28;7.82;;;4.13;;
74371;SDS011;62885;51.374;6.170;2022-12-18T08:23:56;11.45;;;5.55;;
74371;SDS011;62885;51.374;6.170;2022-12-18T08:26:24;13.20;;;7.20;;
74371;SDS011;62885;51.374;6.170;2022-12-18T08:28:51;9.40;;;3.70;;
74371;SDS011;62885;51.374;6.170;2022-12-18T08:31:18;11.00;;;4.88;;
74371;SDS011;62885;51.374;6.170;2022-12-18T08:33:43;10.15;;;5.43;;
74371;SDS011;62885;51.374;6.170;2022-12-18T08:36:09;15.15;;;4.75;;
74371;SDS011;62885;51.374;6.170;2022-12-18T08:38:35;9.82;;;4.65;;
74371;SDS011;62885;51.374;6.170;2022-12-18T08:41:08;11.00;;;5.40;;
74371;SDS011;62885;51.374;6.170;2022-12-18T08:43:38;9.52;;;4.70;;
74371;SDS011;62885;51.374;6.170;2022-12-18T08:46:24;8.25;;;4.57;;
74371;SDS011;62885;51.374;6.170;2022-12-18T08:48:50;9.95;;;5.93;;
74371;SDS011;62885;51.374;6.170;2022-12-18T08:51:17;9.75;;;4.65;;
74371;SDS011;62885;51.374;6.170;2022-12-18T08:53:43;8.40;;;4.32;;
74371;SDS011;62885;51.374;6.170;2022-12-18T08:56:09;10.82;;;5.95;;
74371;SDS011;62885;51.374;6.170;2022-12-18T08:58:35;12.88;;;6.40;;
74371;SDS011;62885;51.374;6.170;2022-12-18T09:01:01;14.55;;;6.47;;
74371;SDS011;62885;51.374;6.170;2022-12-18T09:03:31;8.90;;;4.43;;
74371;SDS011;62885;51.374;6.170;2022-12-18T09:05:58;11.63;;;5.60;;
74371;SDS011;62885;51.374;6.170;2022-12-18T09:08:24;9.70;;;5.43;;
74371;SDS011;62885;51.374;6.170;2022-12-18T09:10:50;8.05;;;4.38;;
74371;SDS011;62885;51.374;6.170;2022-12-18T09:13:19;10.77;;;5.07;;
74371;SDS011;62885;51.374;6.170;2022-12-18T09:15:46;11.38;;;5.80;;
74371;SDS011;62885;51.374;6.170;2022-12-18T09:18:14;13.95;;;5.63;;
74371;SDS011;62885;51.374;6.170;2022-12-18T09:20:41;10.77;;;5.32;;
74371;SDS011;62885;51.374;6.170;2022-12-18T09:23:07;11.15;;;4.57;;
74371;SDS011;62885;51.374;6.170;2022-12-18T09:25:33;11.75;;;5.50;;
74371;SDS011;62885;51.374;6.170;2022-12-18T09:28:00;12.40;;;6.43;;
74371;SDS011;62885;51.374;6.170;2022-12-18T09:30:30;10.85;;;5.82;;
74371;SDS011;62885;51.374;6.170;2022-12-18T09:32:58;12.50;;;5.82;;
74371;SDS011;62885;51.374;6.170;2022-12-18T09:35:23;14.73;;;4.95;;
74371;SDS011;62885;51.374;6.170;2022-12-18T09:37:49;12.63;;;6.25;;
74371;SDS011;62885;51.374;6.170;2022-12-18T09:40:16;12.02;;;6.68;;
74371;SDS011;62885;51.374;6.170;2022-12-18T09:43:04;10.02;;;4.47;;
74371;SDS011;62885;51.374;6.170;2022-12-18T09:45:31;11.23;;;6.20;;
74371;SDS011;62885;51.374;6.170;2022-12-18T09:48:05;11.48;;;6.00;;
74371;SDS011;62885;51.374;6.170;2022-12-18T09:50:58;10.38;;;5.75;;
74371;SDS011;62885;51.374;6.170;2022-12-18T09:53:30;9.57;;;4.40;;
74371;SDS011;62885;51.374;6.170;2022-12-18T09:56:00;12.52;;;5.75;;
74371;SDS011;62885;51.374;6.170;2022-12-18T09:58:33;12.32;;;6.72;;
74371;SDS011;62885;51.374;6.170;2022-12-18T10:01:10;11.40;;;5.15;;
74371;SDS011;62885;51.374;6.170;2022-12-18T10:03:36;12.65;;;6.40;;
74371;SDS011;62885;51.374;6.170;2022-12-18T10:11:20;14.82;;;6.60;;
74371;SDS011;62885;51.374;6.170;2022-12-18T10:13:52;7.63;;;3.88;;
74371;SDS011;62885;51.374;6.170;2022-12-18T10:16:28;9.57;;;5.03;;
74371;SDS011;62885;51.374;6.170;2022-12-18T10:19:19;11.35;;;6.85;;
74371;SDS011;62885;51.374;6.170;2022-12-18T10:22:07;9.27;;;4.63;;
74371;SDS011;62885;51.374;6.170;2022-12-18T10:25:02;12.07;;;6.45;;
74371;SDS011;62885;51.374;6.170;2022-12-18T10:27:31;13.43;;;6.60;;
74371;SDS011;62885;51.374;6.170;2022-12-18T10:29:57;13.65;;;5.68;;
74371;SDS011;62885;51.374;6.170;2022-12-18T10:32:29;11.13;;;5.07;;
74371;SDS011;62885;51.374;6.170;2022-12-18T10:34:56;12.25;;;5.60;;
74371;SDS011;62885;51.374;6.170;2022-12-18T10:37:24;9.65;;;4.55;;
74371;SDS011;62885;51.374;6.170;2022-12-18T10:40:08;12.40;;;6.15;;
74371;SDS011;62885;51.374;6.170;2022-12-18T10:42:36;11.85;;;5.75;;
74371;SDS011;62885;51.374;6.170;2022-12-18T10:47:42;12.50;;;6.50;;
74371;SDS011;62885;51.374;6.170;2022-12-18T10:52:43;11.55;;;6.03;;
74371;SDS011;62885;51.374;6.170;2022-12-18T10:55:18;11.10;;;6.07;;
74371;SDS011;62885;51.374;6.170;2022-12-18T10:57:44;11.90;;;5.25;;
74371;SDS011;62885;51.374;6.170;2022-12-18T11:00:20;13.02;;;5.57;;
74371;SDS011;62885;51.374;6.170;2022-12-18T11:02:56;12.75;;;5.75;;
74371;SDS011;62885;51.374;6.170;2022-12-18T11:05:29;9.75;;;4.28;;
74371;SDS011;62885;51.374;6.170;2022-12-18T11:07:56;10.68;;;4.57;;
74371;SDS011;62885;51.374;6.170;2022-12-18T11:10:33;14.63;;;6.65;;
74371;SDS011;62885;51.374;6.170;2022-12-18T11:15:57;11.30;;;5.07;;
74371;SDS011;62885;51.374;6.170;2022-12-18T11:18:33;10.48;;;5.40;;
74371;SDS011;62885;51.374;6.170;2022-12-18T11:21:01;14.23;;;7.50;;
74371;SDS011;62885;51.374;6.170;2022-12-18T11:23:32;11.95;;;5.05;;
74371;SDS011;62885;51.374;6.170;2022-12-18T11:25:59;7.80;;;4.63;;
74371;SDS011;62885;51.374;6.170;2022-12-18T11:28:29;8.90;;;4.47;;
74371;SDS011;62885;51.374;6.170;2022-12-18T11:33:34;7.88;;;4.30;;
74371;SDS011;62885;51.374;6.170;2022-12-18T11:36:02;15.95;;;6.07;;
74371;SDS011;62885;51.374;6.170;2022-12-18T11:38:34;8.73;;;4.97;;
74371;SDS011;62885;51.374;6.170;2022-12-18T11:41:04;14.38;;;5.78;;
74371;SDS011;62885;51.374;6.170;2022-12-18T11:44:27;12.73;;;6.53;;
74371;SDS011;62885;51.374;6.170;2022-12-18T11:47:08;12.23;;;6.00;;
74371;SDS011;62885;51.374;6.170;2022-12-18T11:49:41;14.68;;;7.40;;
74371;SDS011;62885;51.374;6.170;2022-12-18T11:54:58;11.57;;;6.57;;
74371;SDS011;62885;51.374;6.170;2022-12-18T11:57:37;13.57;;;7.57;;
74371;SDS011;62885;51.374;6.170;2022-12-18T12:00:12;12.55;;;5.78;;
74371;SDS011;62885;51.374;6.170;2022-12-18T12:09:08;15.05;;;6.30;;
74371;SDS011;62885;51.374;6.170;2022-12-18T12:21:43;14.25;;;7.28;;
74371;SDS011;62885;51.374;6.170;2022-12-18T12:24:32;9.55;;;5.25;;
74371;SDS011;62885;51.374;6.170;2022-12-18T12:32:21;15.10;;;6.90;;
74371;SDS011;62885;51.374;6.170;2022-12-18T12:40:17;13.98;;;6.68;;
74371;SDS011;62885;51.374;6.170;2022-12-18T12:42:47;12.05;;;5.60;;
74371;SDS011;62885;51.374;6.170;2022-12-18T12:48:31;17.50;;;6.75;;
74371;SDS011;62885;51.374;6.170;2022-12-18T12:51:01;16.67;;;6.20;;
74371;SDS011;62885;51.374;6.170;2022-12-18T12:53:36;14.32;;;6.70;;
74371;SDS011;62885;51.374;6.170;2022-12-18T12:56:04;19.15;;;7.60;;
74371;SDS011;62885;51.374;6.170;2022-12-18T12:58:39;14.93;;;7.07;;
74371;SDS011;62885;51.374;6.170;2022-12-18T13:04:02;7.53;;;3.40;;
74371;SDS011;62885;51.374;6.170;2022-12-18T13:07:02;11.85;;;5.90;;
74371;SDS011;62885;51.374;6.170;2022-12-18T13:12:54;16.05;;;6.80;;
74371;SDS011;62885;51.374;6.170;2022-12-18T13:15:24;19.10;;;6.65;;
74371;SDS011;62885;51.374;6.170;2022-12-18T13:18:02;14.95;;;6.22;;
74371;SDS011;62885;51.374;6.170;2022-12-18T13:20:32;12.75;;;7.13;;
74371;SDS011;62885;51.374;6.170;2022-12-18T13:23:00;10.77;;;6.00;;
74371;SDS011;62885;51.374;6.170;2022-12-18T13:25:32;16.27;;;8.02;;
74371;SDS011;62885;51.374;6.170;2022-12-18T13:35:39;17.33;;;6.68;;
74371;SDS011;62885;51.374;6.170;2022-12-18T13:38:20;12.02;;;6.43;;
74371;SDS011;62885;51.374;6.170;2022-12-18T13:41:24;17.20;;;6.90;;
74371;SDS011;62885;51.374;6.170;2022-12-18T13:43:50;13.73;;;7.10;;
74371;SDS011;62885;51.374;6.170;2022-12-18T13:46:19;13.38;;;6.20;;
74371;SDS011;62885;51.374;6.170;2022-12-18T13:51:20;13.63;;;6.27;;
74371;SDS011;62885;51.374;6.170;2022-12-18T13:53:48;18.13;;;6.50;;
74371;SDS011;62885;51.374;6.170;2022-12-18T13:56:17;13.25;;;6.28;;
74371;SDS011;62885;51.374;6.170;2022-12-18T13:59:12;14.93;;;7.43;;
74371;SDS011;62885;51.374;6.170;2022-12-18T14:01:31;14.48;;;7.60;;
74371;SDS011;62885;51.374;6.170;2022-12-18T14:04:10;14.90;;;8.20;;
74371;SDS011;62885;51.374;6.170;2022-12-18T14:06:38;13.63;;;6.53;;
74371;SDS011;62885;51.374;6.170;2022-12-18T14:09:03;14.60;;;8.02;;
74371;SDS011;62885;51.374;6.170;2022-12-18T14:11:29;17.35;;;8.38;;
74371;SDS011;62885;51.374;6.170;2022-12-18T14:13:55;14.63;;;7.18;;
74371;SDS011;62885;51.374;6.170;2022-12-18T14:16:21;12.93;;;6.63;;
74371;SDS011;62885;51.374;6.170;2022-12-18T14:18:57;12.93;;;6.85;;
74371;SDS011;62885;51.374;6.170;2022-12-18T14:21:27;14.18;;;7.65;;
74371;SDS011;62885;51.374;6.170;2022-12-18T14:24:04;12.25;;;7.40;;
74371;SDS011;62885;51.374;6.170;2022-12-18T14:26:30;15.52;;;7.97;;
74371;SDS011;62885;51.374;6.170;2022-12-18T14:28:58;14.05;;;7.57;;
74371;SDS011;62885;51.374;6.170;2022-12-18T14:31:29;14.70;;;6.47;;
74371;SDS011;62885;51.374;6.170;2022-12-18T14:33:56;14.60;;;6.63;;
74371;SDS011;62885;51.374;6.170;2022-12-18T14:36:22;15.23;;;6.97;;
74371;SDS011;62885;51.374;6.170;2022-12-18T14:38:50;12.60;;;6.60;;
74371;SDS011;62885;51.374;6.170;2022-12-18T14:41:18;12.50;;;6.90;;
74371;SDS011;62885;51.374;6.170;2022-12-18T14:43:46;20.80;;;8.93;;
74371;SDS011;62885;51.374;6.170;2022-12-18T14:46:30;18.38;;;7.35;;
74371;SDS011;62885;51.374;6.170;2022-12-18T14:49:02;13.88;;;7.32;;
74371;SDS011;62885;51.374;6.170;2022-12-18T14:51:33;14.68;;;7.18;;
74371;SDS011;62885;51.374;6.170;2022-12-18T14:54:00;12.88;;;6.32;;
74371;SDS011;62885;51.374;6.170;2022-12-18T14:56:29;15.43;;;6.68;;
74371;SDS011;62885;51.374;6.170;2022-12-18T14:58:58;18.58;;;8.05;;
74371;SDS011;62885;51.374;6.170;2022-12-18T15:03:58;16.90;;;7.82;;
74371;SDS011;62885;51.374;6.170;2022-12-18T15:08:53;15.63;;;8.40;;
74371;SDS011;62885;51.374;6.170;2022-12-18T15:11:25;19.40;;;7.82;;
74371;SDS011;62885;51.374;6.170;2022-12-18T15:13:50;21.27;;;10.63;;
74371;SDS011;62885;51.374;6.170;2022-12-18T15:16:16;25.45;;;11.18;;
74371;SDS011;62885;51.374;6.170;2022-12-18T15:18:41;19.63;;;8.77;;
74371;SDS011;62885;51.374;6.170;2022-12-18T15:21:10;20.80;;;10.13;;
74371;SDS011;62885;51.374;6.170;2022-12-18T15:23:47;13.90;;;6.03;;
74371;SDS011;62885;51.374;6.170;2022-12-18T15:26:15;18.50;;;8.75;;
74371;SDS011;62885;51.374;6.170;2022-12-18T15:36:19;14.90;;;7.63;;
74371;SDS011;62885;51.374;6.170;2022-12-18T15:38:46;16.88;;;7.07;;
74371;SDS011;62885;51.374;6.170;2022-12-18T15:41:16;16.88;;;9.82;;
74371;SDS011;62885;51.374;6.170;2022-12-18T15:43:43;16.73;;;7.38;;
74371;SDS011;62885;51.374;6.170;2022-12-18T15:46:13;16.20;;;8.93;;
74371;SDS011;62885;51.374;6.170;2022-12-18T15:48:49;19.90;;;9.50;;
74371;SDS011;62885;51.374;6.170;2022-12-18T15:53:47;15.23;;;8.13;;
74371;SDS011;62885;51.374;6.170;2022-12-18T15:56:15;19.15;;;9.60;;
74371;SDS011;62885;51.374;6.170;2022-12-18T15:59:00;17.13;;;10.38;;
74371;SDS011;62885;51.374;6.170;2022-12-18T16:01:27;19.45;;;10.52;;
74371;SDS011;62885;51.374;6.170;2022-12-18T16:03:54;19.52;;;9.85;;
74371;SDS011;62885;51.374;6.170;2022-12-18T16:06:21;19.02;;;11.02;;
74371;SDS011;62885;51.374;6.170;2022-12-18T16:08:47;21.70;;;10.05;;
74371;SDS011;62885;51.374;6.170;2022-12-18T16:14:08;18.13;;;8.93;;
74371;SDS011;62885;51.374;6.170;2022-12-18T16:16:40;20.58;;;9.18;;
74371;SDS011;62885;51.374;6.170;2022-12-18T16:19:06;18.90;;;10.50;;
74371;SDS011;62885;51.374;6.170;2022-12-18T16:21:32;21.55;;;10.15;;
74371;SDS011;62885;51.374;6.170;2022-12-18T16:23:57;18.13;;;9.07;;
74371;SDS011;62885;51.374;6.170;2022-12-18T16:26:23;19.73;;;11.00;;
74371;SDS011;62885;51.374;6.170;2022-12-18T16:28:48;23.92;;;8.90;;
74371;SDS011;62885;51.374;6.170;2022-12-18T16:31:13;16.50;;;8.90;;
74371;SDS011;62885;51.374;6.170;2022-12-18T16:33:39;16.55;;;8.30;;
74371;SDS011;62885;51.374;6.170;2022-12-18T16:36:05;22.15;;;9.77;;
74371;SDS011;62885;51.374;6.170;2022-12-18T16:38:30;16.92;;;8.45;;
74371;SDS011;62885;51.374;6.170;2022-12-18T16:40:56;20.13;;;8.82;;
74371;SDS011;62885;51.374;6.170;2022-12-18T16:43:40;17.13;;;8.93;;
74371;SDS011;62885;51.374;6.170;2022-12-18T16:46:05;17.77;;;9.52;;
74371;SDS011;62885;51.374;6.170;2022-12-18T16:48:33;18.80;;;9.52;;
74371;SDS011;62885;51.374;6.170;2022-12-18T16:51:00;19.25;;;8.20;;
74371;SDS011;62885;51.374;6.170;2022-12-18T16:53:31;19.02;;;9.93;;
74371;SDS011;62885;51.374;6.170;2022-12-18T16:55:57;17.52;;;8.90;;
74371;SDS011;62885;51.374;6.170;2022-12-18T16:58:22;17.75;;;9.05;;
74371;SDS011;62885;51.374;6.170;2022-12-18T17:00:48;18.15;;;9.20;;
74371;SDS011;62885;51.374;6.170;2022-12-18T17:03:13;16.30;;;8.57;;